< < Back
Terminal Aerodrome Forecast


Current Version              Previous Versions:   1  2  3  4  5  6  7  8  9  

Terminal Aerodrome Forecast

823
FTUS44 KBMX 231700
TAFTCL
TAF
KTCL 231733Z 2318/2418 VRB05KT 6SM SHRA VCTS BKN040CB
     FM232200 24005KT P6SM VCTS BKN050CB
     FM240300 00000KT P6SM SCT050 BKN150
     FM240800 00000KT 4SM BR SCT150=



Latest METAR

469
SAUS70 KWBC 240400 RRK
MTRTCL
METAR KTCL 240353Z AUTO 01004KT 10SM SCT037 24/22 A3001 RMK AO2 SLP159
T02390217


USA.gov is the U.S. government's official web portal to all federal, state and local government web resources and services.